sensor_id;sensor_type;location;lat;lon;timestamp;pressure;altitude;pressure_sealevel;temperature;humidity
13581;BME280;6861;46.170;7.222;2023-05-27T00:00:42;96321.88;;;20.43;48.39
13581;BME280;6861;46.170;7.222;2023-05-27T00:03:10;96323.44;;;20.44;48.05
13581;BME280;6861;46.170;7.222;2023-05-27T00:05:39;96332.03;;;20.41;48.34
13581;BME280;6861;46.170;7.222;2023-05-27T00:08:09;96328.91;;;20.39;48.48
13581;BME280;6861;46.170;7.222;2023-05-27T00:10:37;96332.19;;;20.36;48.28
13581;BME280;6861;46.170;7.222;2023-05-27T00:13:05;96332.81;;;20.33;48.71
13581;BME280;6861;46.170;7.222;2023-05-27T00:15:34;96335.00;;;20.30;48.60
13581;BME280;6861;46.170;7.222;2023-05-27T00:18:02;96326.56;;;20.28;48.62
13581;BME280;6861;46.170;7.222;2023-05-27T00:20:30;96326.56;;;20.28;48.50
13581;BME280;6861;46.170;7.222;2023-05-27T00:22:59;96328.75;;;20.26;48.40
13581;BME280;6861;46.170;7.222;2023-05-27T00:25:29;96333.63;;;20.24;48.67
13581;BME280;6861;46.170;7.222;2023-05-27T00:27:58;96332.69;;;20.20;48.82
13581;BME280;6861;46.170;7.222;2023-05-27T00:30:27;96333.31;;;20.17;48.85
13581;BME280;6861;46.170;7.222;2023-05-27T00:32:55;96336.63;;;20.14;48.81
13581;BME280;6861;46.170;7.222;2023-05-27T00:35:23;96339.44;;;20.09;49.04
13581;BME280;6861;46.170;7.222;2023-05-27T00:37:51;96339.91;;;20.03;49.24
13581;BME280;6861;46.170;7.222;2023-05-27T00:40:22;96332.13;;;19.97;49.20
13581;BME280;6861;46.170;7.222;2023-05-27T00:42:52;96328.88;;;19.92;49.57
13581;BME280;6861;46.170;7.222;2023-05-27T00:45:21;96331.22;;;19.85;49.24
13581;BME280;6861;46.170;7.222;2023-05-27T00:47:49;96332.16;;;19.80;49.39
13581;BME280;6861;46.170;7.222;2023-05-27T00:50:18;96325.13;;;19.76;49.26
13581;BME280;6861;46.170;7.222;2023-05-27T00:52:48;96326.41;;;19.70;49.34
13581;BME280;6861;46.170;7.222;2023-05-27T00:55:17;96317.97;;;19.68;49.31
13581;BME280;6861;46.170;7.222;2023-05-27T00:57:45;96324.22;;;19.72;49.34
13581;BME280;6861;46.170;7.222;2023-05-27T01:00:15;96319.69;;;19.72;49.39
13581;BME280;6861;46.170;7.222;2023-05-27T01:02:44;96314.06;;;19.74;49.07
13581;BME280;6861;46.170;7.222;2023-05-27T01:05:15;96316.84;;;19.77;49.01
13581;BME280;6861;46.170;7.222;2023-05-27T01:07:54;96313.09;;;19.78;49.13
13581;BME280;6861;46.170;7.222;2023-05-27T01:10:31;96308.56;;;19.79;49.11
13581;BME280;6861;46.170;7.222;2023-05-27T01:13:11;96312.97;;;19.75;49.42
13581;BME280;6861;46.170;7.222;2023-05-27T01:15:42;96312.03;;;19.71;49.83
13581;BME280;6861;46.170;7.222;2023-05-27T01:18:12;96314.06;;;19.65;50.18
13581;BME280;6861;46.170;7.222;2023-05-27T01:20:47;96307.81;;;19.61;50.28
13581;BME280;6861;46.170;7.222;2023-05-27T01:23:18;96298.75;;;19.62;50.06
13581;BME280;6861;46.170;7.222;2023-05-27T01:25:46;96294.53;;;19.61;49.97
13581;BME280;6861;46.170;7.222;2023-05-27T01:28:15;96305.63;;;19.63;50.37
13581;BME280;6861;46.170;7.222;2023-05-27T01:30:43;96310.78;;;19.59;50.52
13581;BME280;6861;46.170;7.222;2023-05-27T01:33:15;96307.66;;;19.57;50.77
13581;BME280;6861;46.170;7.222;2023-05-27T01:35:49;96307.50;;;19.54;51.13
13581;BME280;6861;46.170;7.222;2023-05-27T01:38:21;96312.16;;;19.48;51.27
13581;BME280;6861;46.170;7.222;2023-05-27T01:40:51;96310.13;;;19.45;51.28
13581;BME280;6861;46.170;7.222;2023-05-27T01:43:22;96314.50;;;19.41;51.96
13581;BME280;6861;46.170;7.222;2023-05-27T01:45:51;96314.19;;;19.34;51.56
13581;BME280;6861;46.170;7.222;2023-05-27T01:48:19;96310.13;;;19.28;51.64
13581;BME280;6861;46.170;7.222;2023-05-27T01:50:48;96309.81;;;19.21;51.96
13581;BME280;6861;46.170;7.222;2023-05-27T01:53:16;96308.06;;;19.16;51.69
13581;BME280;6861;46.170;7.222;2023-05-27T01:55:48;96311.66;;;19.12;51.87
13581;BME280;6861;46.170;7.222;2023-05-27T01:58:16;96317.59;;;19.09;51.99
13581;BME280;6861;46.170;7.222;2023-05-27T02:00:47;96320.09;;;19.05;52.32
13581;BME280;6861;46.170;7.222;2023-05-27T02:03:15;96316.69;;;19.05;51.87
13581;BME280;6861;46.170;7.222;2023-05-27T02:05:44;96314.94;;;19.00;52.18
13581;BME280;6861;46.170;7.222;2023-05-27T02:08:12;96321.97;;;18.96;52.02
13581;BME280;6861;46.170;7.222;2023-05-27T02:10:40;96320.22;;;18.91;51.41
13581;BME280;6861;46.170;7.222;2023-05-27T02:13:10;96316.63;;;18.87;52.31
13581;BME280;6861;46.170;7.222;2023-05-27T02:15:38;96307.25;;;18.81;52.41
13581;BME280;6861;46.170;7.222;2023-05-27T02:18:07;96311.63;;;18.77;52.06
13581;BME280;6861;46.170;7.222;2023-05-27T02:20:35;96311.44;;;18.74;52.57
13581;BME280;6861;46.170;7.222;2023-05-27T02:23:06;96312.84;;;18.71;51.90
13581;BME280;6861;46.170;7.222;2023-05-27T02:25:34;96309.72;;;18.69;51.86
13581;BME280;6861;46.170;7.222;2023-05-27T02:28:03;96315.00;;;18.60;51.68
13581;BME280;6861;46.170;7.222;2023-05-27T02:30:32;96309.97;;;18.59;52.37
13581;BME280;6861;46.170;7.222;2023-05-27T02:33:00;96312.94;;;18.57;51.64
13581;BME280;6861;46.170;7.222;2023-05-27T02:35:29;96302.63;;;18.56;51.57
13581;BME280;6861;46.170;7.222;2023-05-27T02:37:57;96307.47;;;18.54;51.70
13581;BME280;6861;46.170;7.222;2023-05-27T02:40:25;96308.25;;;18.54;51.73
13581;BME280;6861;46.170;7.222;2023-05-27T02:42:55;96312.44;;;18.55;51.67
13581;BME280;6861;46.170;7.222;2023-05-27T02:45:23;96314.03;;;18.56;51.68
13581;BME280;6861;46.170;7.222;2023-05-27T02:47:53;96314.81;;;18.57;52.00
13581;BME280;6861;46.170;7.222;2023-05-27T02:50:22;96317.94;;;18.59;51.61
13581;BME280;6861;46.170;7.222;2023-05-27T02:52:50;96307.63;;;18.57;51.67
13581;BME280;6861;46.170;7.222;2023-05-27T02:55:18;96309.97;;;18.59;51.47
13581;BME280;6861;46.170;7.222;2023-05-27T02:57:47;96309.97;;;18.59;51.45
13581;BME280;6861;46.170;7.222;2023-05-27T03:00:16;96302.94;;;18.54;52.04
13581;BME280;6861;46.170;7.222;2023-05-27T03:02:44;96311.81;;;18.50;51.96
13581;BME280;6861;46.170;7.222;2023-05-27T03:05:14;96301.81;;;18.47;52.01
13581;BME280;6861;46.170;7.222;2023-05-27T03:07:42;96307.38;;;18.37;52.12
13581;BME280;6861;46.170;7.222;2023-05-27T03:10:10;96303.31;;;18.30;52.16
13581;BME280;6861;46.170;7.222;2023-05-27T03:12:38;96303.91;;;18.27;52.54
13581;BME280;6861;46.170;7.222;2023-05-27T03:15:07;96303.91;;;18.27;52.38
13581;BME280;6861;46.170;7.222;2023-05-27T03:17:36;96307.00;;;18.21;52.78
13581;BME280;6861;46.170;7.222;2023-05-27T03:20:06;96313.25;;;18.16;53.00
13581;BME280;6861;46.170;7.222;2023-05-27T03:22:36;96312.13;;;18.09;52.93
13581;BME280;6861;46.170;7.222;2023-05-27T03:25:05;96311.16;;;18.05;53.49
13581;BME280;6861;46.170;7.222;2023-05-27T03:27:34;96310.84;;;18.06;53.51
13581;BME280;6861;46.170;7.222;2023-05-27T03:30:04;96315.06;;;18.07;53.05
13581;BME280;6861;46.170;7.222;2023-05-27T03:32:33;96318.19;;;18.09;53.88
13581;BME280;6861;46.170;7.222;2023-05-27T03:35:01;96314.47;;;18.10;53.76
13581;BME280;6861;46.170;7.222;2023-05-27T03:37:29;96320.53;;;18.11;53.36
13581;BME280;6861;46.170;7.222;2023-05-27T03:39:59;96316.63;;;18.08;53.40
13581;BME280;6861;46.170;7.222;2023-05-27T03:42:27;96318.81;;;18.06;54.29
13581;BME280;6861;46.170;7.222;2023-05-27T03:44:58;96308.03;;;18.02;53.81
13581;BME280;6861;46.170;7.222;2023-05-27T03:47:26;96316.88;;;17.98;54.17
13581;BME280;6861;46.170;7.222;2023-05-27T03:49:55;96308.47;;;17.96;54.51
13581;BME280;6861;46.170;7.222;2023-05-27T03:52:23;96310.03;;;17.97;54.56
13581;BME280;6861;46.170;7.222;2023-05-27T03:54:51;96311.09;;;17.96;54.41
13581;BME280;6861;46.170;7.222;2023-05-27T03:57:21;96311.09;;;17.96;53.65
13581;BME280;6861;46.170;7.222;2023-05-27T03:59:49;96309.84;;;17.93;54.24
13581;BME280;6861;46.170;7.222;2023-05-27T04:02:17;96305.34;;;17.94;53.70
13581;BME280;6861;46.170;7.222;2023-05-27T04:04:46;96313.28;;;17.94;54.01
13581;BME280;6861;46.170;7.222;2023-05-27T04:07:14;96308.47;;;17.96;53.31
13581;BME280;6861;46.170;7.222;2023-05-27T04:09:42;96314.53;;;17.96;53.93
13581;BME280;6861;46.170;7.222;2023-05-27T04:12:10;96323.25;;;17.97;53.31
13581;BME280;6861;46.170;7.222;2023-05-27T04:14:40;96324.53;;;17.99;53.04
13581;BME280;6861;46.170;7.222;2023-05-27T04:17:08;96316.28;;;18.01;53.70
13581;BME280;6861;46.170;7.222;2023-05-27T04:19:36;96316.59;;;17.99;53.98
13581;BME280;6861;46.170;7.222;2023-05-27T04:22:05;96310.63;;;17.94;53.67
13581;BME280;6861;46.170;7.222;2023-05-27T04:24:33;96315.44;;;17.92;53.50
13581;BME280;6861;46.170;7.222;2023-05-27T04:27:01;96316.53;;;17.91;54.04
13581;BME280;6861;46.170;7.222;2023-05-27T04:29:30;96314.97;;;17.90;53.37
13581;BME280;6861;46.170;7.222;2023-05-27T04:32:00;96313.56;;;17.92;53.71
13581;BME280;6861;46.170;7.222;2023-05-27T04:34:28;96316.59;;;17.99;53.88
13581;BME280;6861;46.170;7.222;2023-05-27T04:36:56;96326.13;;;18.09;53.71
13581;BME280;6861;46.170;7.222;2023-05-27T04:39:27;96313.38;;;18.11;54.14
13581;BME280;6861;46.170;7.222;2023-05-27T04:41:56;96319.63;;;18.15;54.37
13581;BME280;6861;46.170;7.222;2023-05-27T04:44:24;96318.19;;;18.09;54.25
13581;BME280;6861;46.170;7.222;2023-05-27T04:46:54;96317.97;;;17.97;54.27
13581;BME280;6861;46.170;7.222;2023-05-27T04:49:24;96315.56;;;17.87;54.39
13581;BME280;6861;46.170;7.222;2023-05-27T04:51:53;96323.28;;;17.75;54.63
13581;BME280;6861;46.170;7.222;2023-05-27T04:54:21;96321.34;;;17.66;54.96
13581;BME280;6861;46.170;7.222;2023-05-27T04:56:49;96315.66;;;17.59;55.68
13581;BME280;6861;46.170;7.222;2023-05-27T04:59:19;96321.56;;;17.56;55.32
13581;BME280;6861;46.170;7.222;2023-05-27T05:01:48;96324.31;;;17.51;55.23
13581;BME280;6861;46.170;7.222;2023-05-27T05:04:38;96322.56;;;17.47;56.10
13581;BME280;6861;46.170;7.222;2023-05-27T05:07:08;96322.56;;;17.47;55.53
13581;BME280;6861;46.170;7.222;2023-05-27T05:09:37;96325.56;;;17.54;56.01
13581;BME280;6861;46.170;7.222;2023-05-27T05:12:06;96331.41;;;17.64;55.36
13581;BME280;6861;46.170;7.222;2023-05-27T05:14:34;96326.22;;;17.95;54.78
13581;BME280;6861;46.170;7.222;2023-05-27T05:17:03;96329.28;;;18.51;53.71
13581;BME280;6861;46.170;7.222;2023-05-27T05:19:31;96328.19;;;19.09;53.39
13581;BME280;6861;46.170;7.222;2023-05-27T05:22:01;96331.69;;;19.70;51.68
13581;BME280;6861;46.170;7.222;2023-05-27T05:24:29;96328.75;;;20.26;50.65
13581;BME280;6861;46.170;7.222;2023-05-27T05:26:57;96328.38;;;20.83;49.56
13581;BME280;6861;46.170;7.222;2023-05-27T05:29:25;96330.75;;;21.35;48.32
13581;BME280;6861;46.170;7.222;2023-05-27T05:31:53;96323.31;;;21.82;47.42
13581;BME280;6861;46.170;7.222;2023-05-27T05:34:22;96330.34;;;22.32;46.63
13581;BME280;6861;46.170;7.222;2023-05-27T05:36:50;96319.59;;;22.77;45.44
13581;BME280;6861;46.170;7.222;2023-05-27T05:39:20;96325.16;;;23.09;44.55
13581;BME280;6861;46.170;7.222;2023-05-27T05:41:48;96325.13;;;23.33;44.28
13581;BME280;6861;46.170;7.222;2023-05-27T05:44:17;96320.34;;;23.67;44.03
13581;BME280;6861;46.170;7.222;2023-05-27T05:46:45;96316.41;;;24.04;43.30
13581;BME280;6861;46.170;7.222;2023-05-27T05:49:13;96327.41;;;24.46;42.30
13581;BME280;6861;46.170;7.222;2023-05-27T05:51:42;96327.47;;;24.81;41.53
13581;BME280;6861;46.170;7.222;2023-05-27T05:54:10;96328.16;;;25.10;40.95
13581;BME280;6861;46.170;7.222;2023-05-27T05:56:40;96322.06;;;25.48;40.24
13581;BME280;6861;46.170;7.222;2023-05-27T05:59:08;96325.06;;;25.82;39.86
13581;BME280;6861;46.170;7.222;2023-05-27T06:01:36;96315.91;;;26.28;38.77
13581;BME280;6861;46.170;7.222;2023-05-27T06:04:04;96315.31;;;26.84;38.11
13581;BME280;6861;46.170;7.222;2023-05-27T06:06:33;96314.44;;;27.29;37.40
13581;BME280;6861;46.170;7.222;2023-05-27T06:09:01;96304.25;;;27.72;36.40
13581;BME280;6861;46.170;7.222;2023-05-27T06:11:30;96303.56;;;27.82;35.98
13581;BME280;6861;46.170;7.222;2023-05-27T06:13:59;96302.06;;;28.22;35.90
13581;BME280;6861;46.170;7.222;2023-05-27T06:16:27;96301.25;;;28.62;35.34
13581;BME280;6861;46.170;7.222;2023-05-27T06:18:56;96292.34;;;29.06;34.51
13581;BME280;6861;46.170;7.222;2023-05-27T06:21:24;96293.97;;;29.24;33.89
13581;BME280;6861;46.170;7.222;2023-05-27T06:23:52;96296.47;;;29.61;33.92
13581;BME280;6861;46.170;7.222;2023-05-27T06:26:21;96301.25;;;30.07;33.17
13581;BME280;6861;46.170;7.222;2023-05-27T06:28:49;96295.09;;;30.46;32.54
13581;BME280;6861;46.170;7.222;2023-05-27T06:31:19;96285.84;;;30.72;32.21
13581;BME280;6861;46.170;7.222;2023-05-27T06:33:47;96291.97;;;31.11;31.68
13581;BME280;6861;46.170;7.222;2023-05-27T06:36:15;96290.72;;;31.44;31.05
13581;BME280;6861;46.170;7.222;2023-05-27T06:38:43;96284.09;;;31.59;30.16
13581;BME280;6861;46.170;7.222;2023-05-27T06:41:11;96282.44;;;31.83;29.81
13581;BME280;6861;46.170;7.222;2023-05-27T06:43:39;96270.63;;;32.15;30.06
13581;BME280;6861;46.170;7.222;2023-05-27T06:46:08;96270.41;;;32.50;29.28
13581;BME280;6861;46.170;7.222;2023-05-27T06:48:37;96264.94;;;32.95;28.86
13581;BME280;6861;46.170;7.222;2023-05-27T06:51:06;96274.69;;;33.30;28.38
13581;BME280;6861;46.170;7.222;2023-05-27T06:53:34;96266.03;;;33.39;27.51
13581;BME280;6861;46.170;7.222;2023-05-27T06:56:03;96254.66;;;33.51;27.25
13581;BME280;6861;46.170;7.222;2023-05-27T06:58:31;96259.34;;;33.77;27.01
13581;BME280;6861;46.170;7.222;2023-05-27T07:01:01;96257.06;;;34.03;27.16
13581;BME280;6861;46.170;7.222;2023-05-27T07:03:29;96253.59;;;34.26;26.63
13581;BME280;6861;46.170;7.222;2023-05-27T07:05:59;96252.59;;;34.66;26.45
13581;BME280;6861;46.170;7.222;2023-05-27T07:08:27;96254.25;;;35.23;25.52
13581;BME280;6861;46.170;7.222;2023-05-27T07:10:55;96250.06;;;35.58;24.93
13581;BME280;6861;46.170;7.222;2023-05-27T07:13:24;96238.75;;;35.96;24.61
13581;BME280;6861;46.170;7.222;2023-05-27T07:15:52;96243.31;;;36.35;24.01
13581;BME280;6861;46.170;7.222;2023-05-27T07:18:20;96235.69;;;36.59;23.40
13581;BME280;6861;46.170;7.222;2023-05-27T07:20:48;96231.16;;;36.68;22.97
13581;BME280;6861;46.170;7.222;2023-05-27T07:23:18;96228.50;;;36.65;22.40
13581;BME280;6861;46.170;7.222;2023-05-27T07:25:47;96229.72;;;36.48;22.41
13581;BME280;6861;46.170;7.222;2023-05-27T07:28:15;96227.09;;;36.11;22.32
13581;BME280;6861;46.170;7.222;2023-05-27T07:30:43;96232.28;;;36.06;22.54
13581;BME280;6861;46.170;7.222;2023-05-27T07:33:12;96226.34;;;36.11;22.20
13581;BME280;6861;46.170;7.222;2023-05-27T07:35:41;96221.13;;;36.17;22.18
13581;BME280;6861;46.170;7.222;2023-05-27T07:38:09;96217.19;;;36.50;21.95
13581;BME280;6861;46.170;7.222;2023-05-27T07:40:39;96215.78;;;36.91;21.70
13581;BME280;6861;46.170;7.222;2023-05-27T07:43:07;96213.50;;;37.31;21.42
13581;BME280;6861;46.170;7.222;2023-05-27T07:45:35;96207.56;;;37.87;20.98
13581;BME280;6861;46.170;7.222;2023-05-27T07:48:03;96201.94;;;38.28;20.81
13581;BME280;6861;46.170;7.222;2023-05-27T07:50:31;96202.34;;;38.40;20.23
13581;BME280;6861;46.170;7.222;2023-05-27T07:53:00;96195.19;;;38.67;20.42
13581;BME280;6861;46.170;7.222;2023-05-27T07:55:28;96194.56;;;39.07;19.82
13581;BME280;6861;46.170;7.222;2023-05-27T07:57:57;96188.44;;;39.25;19.54
13581;BME280;6861;46.170;7.222;2023-05-27T08:00:26;96188.69;;;39.18;19.26
13581;BME280;6861;46.170;7.222;2023-05-27T08:02:54;96179.00;;;39.26;18.94
13581;BME280;6861;46.170;7.222;2023-05-27T08:05:23;96182.75;;;39.41;19.11
13581;BME280;6861;46.170;7.222;2023-05-27T08:07:51;96176.66;;;39.68;18.68
13581;BME280;6861;46.170;7.222;2023-05-27T08:10:20;96174.19;;;40.10;18.46
13581;BME280;6861;46.170;7.222;2023-05-27T08:12:48;96164.97;;;40.53;17.95
13581;BME280;6861;46.170;7.222;2023-05-27T08:15:18;96162.69;;;40.70;17.40
13581;BME280;6861;46.170;7.222;2023-05-27T08:17:47;96161.16;;;40.69;17.40
13581;BME280;6861;46.170;7.222;2023-05-27T08:20:15;96150.91;;;40.97;17.38
13581;BME280;6861;46.170;7.222;2023-05-27T08:22:43;96145.22;;;41.28;16.84
13581;BME280;6861;46.170;7.222;2023-05-27T08:25:14;96145.31;;;41.43;16.83
13581;BME280;6861;46.170;7.222;2023-05-27T08:27:44;96138.34;;;41.66;16.72
13581;BME280;6861;46.170;7.222;2023-05-27T08:30:13;96132.69;;;42.02;16.47
13581;BME280;6861;46.170;7.222;2023-05-27T08:32:43;96122.78;;;42.58;15.96
13581;BME280;6861;46.170;7.222;2023-05-27T08:35:11;96125.13;;;43.04;15.81
13581;BME280;6861;46.170;7.222;2023-05-27T08:37:40;96117.56;;;43.63;15.45
13581;BME280;6861;46.170;7.222;2023-05-27T08:40:12;96116.28;;;43.79;15.05
13581;BME280;6861;46.170;7.222;2023-05-27T08:42:42;96114.19;;;43.74;15.09
13581;BME280;6861;46.170;7.222;2023-05-27T08:45:11;96099.94;;;43.75;15.00
13581;BME280;6861;46.170;7.222;2023-05-27T08:47:39;96108.91;;;44.31;15.01
13581;BME280;6861;46.170;7.222;2023-05-27T08:50:10;96095.53;;;45.28;14.83
13581;BME280;6861;46.170;7.222;2023-05-27T08:52:44;96088.50;;;46.23;14.38
13581;BME280;6861;46.170;7.222;2023-05-27T08:55:15;96084.38;;;46.84;13.69
13581;BME280;6861;46.170;7.222;2023-05-27T08:57:46;96085.09;;;46.56;13.38
13581;BME280;6861;46.170;7.222;2023-05-27T09:00:18;96084.34;;;46.50;13.69
13581;BME280;6861;46.170;7.222;2023-05-27T09:02:46;96080.31;;;46.51;13.42
13581;BME280;6861;46.170;7.222;2023-05-27T09:05:17;96073.97;;;46.34;13.35
13581;BME280;6861;46.170;7.222;2023-05-27T09:07:45;96072.31;;;46.76;13.36
13581;BME280;6861;46.170;7.222;2023-05-27T09:10:14;96064.47;;;47.52;13.10
13581;BME280;6861;46.170;7.222;2023-05-27T09:12:43;96062.31;;;48.44;12.60
13581;BME280;6861;46.170;7.222;2023-05-27T09:15:12;96054.06;;;48.69;12.36
13581;BME280;6861;46.170;7.222;2023-05-27T09:17:41;96055.41;;;49.22;12.21
13581;BME280;6861;46.170;7.222;2023-05-27T09:20:10;96045.44;;;49.56;12.00
13581;BME280;6861;46.170;7.222;2023-05-27T09:22:41;96030.06;;;49.99;11.91
13581;BME280;6861;46.170;7.222;2023-05-27T09:25:09;96036.44;;;50.31;11.38
13581;BME280;6861;46.170;7.222;2023-05-27T09:27:42;96034.84;;;50.55;11.58
13581;BME280;6861;46.170;7.222;2023-05-27T09:30:12;96025.63;;;50.78;11.34
13581;BME280;6861;46.170;7.222;2023-05-27T09:32:40;96021.72;;;51.00;11.32
13581;BME280;6861;46.170;7.222;2023-05-27T09:35:11;96017.59;;;50.88;11.12
13581;BME280;6861;46.170;7.222;2023-05-27T09:37:40;96018.41;;;51.02;11.28
13581;BME280;6861;46.170;7.222;2023-05-27T09:40:11;96011.41;;;51.22;11.36
13581;BME280;6861;46.170;7.222;2023-05-27T09:42:41;96012.69;;;50.94;11.24
13581;BME280;6861;46.170;7.222;2023-05-27T09:45:11;96009.09;;;50.48;11.23
13581;BME280;6861;46.170;7.222;2023-05-27T09:47:41;96003.28;;;50.14;11.69
13581;BME280;6861;46.170;7.222;2023-05-27T09:50:12;96001.63;;;50.06;11.71
13581;BME280;6861;46.170;7.222;2023-05-27T09:52:43;95999.47;;;49.74;11.92
13581;BME280;6861;46.170;7.222;2023-05-27T09:55:31;96000.38;;;49.15;12.22
13581;BME280;6861;46.170;7.222;2023-05-27T09:57:59;95996.06;;;48.59;12.67
13581;BME280;6861;46.170;7.222;2023-05-27T10:00:28;95995.59;;;47.62;13.19
13581;BME280;6861;46.170;7.222;2023-05-27T10:03:00;95989.25;;;45.77;14.62
13581;BME280;6861;46.170;7.222;2023-05-27T10:05:29;95989.22;;;43.83;15.90
13581;BME280;6861;46.170;7.222;2023-05-27T10:07:59;95994.88;;;42.00;17.08
13581;BME280;6861;46.170;7.222;2023-05-27T10:10:32;95977.50;;;40.56;18.48
13581;BME280;6861;46.170;7.222;2023-05-27T10:13:00;95982.19;;;39.37;19.42
13581;BME280;6861;46.170;7.222;2023-05-27T10:15:31;95982.59;;;38.24;20.24
13581;BME280;6861;46.170;7.222;2023-05-27T10:18:01;95984.78;;;37.26;21.76
13581;BME280;6861;46.170;7.222;2023-05-27T10:20:31;95974.56;;;36.37;22.56
13581;BME280;6861;46.170;7.222;2023-05-27T10:23:11;95974.53;;;35.51;23.59
13581;BME280;6861;46.170;7.222;2023-05-27T10:25:45;95975.09;;;34.93;24.25
13581;BME280;6861;46.170;7.222;2023-05-27T10:28:23;95972.16;;;34.28;25.10
13581;BME280;6861;46.170;7.222;2023-05-27T10:30:51;95981.19;;;33.82;26.23
13581;BME280;6861;46.170;7.222;2023-05-27T10:33:28;95967.91;;;33.44;26.81
13581;BME280;6861;46.170;7.222;2023-05-27T10:36:02;95975.03;;;33.08;27.13
13581;BME280;6861;46.170;7.222;2023-05-27T10:38:32;95955.63;;;32.86;27.46
13581;BME280;6861;46.170;7.222;2023-05-27T10:41:01;95973.00;;;32.62;28.41
13581;BME280;6861;46.170;7.222;2023-05-27T10:43:30;95964.78;;;32.38;28.92
13581;BME280;6861;46.170;7.222;2023-05-27T10:46:08;95963.41;;;32.23;28.64
13581;BME280;6861;46.170;7.222;2023-05-27T10:48:37;95948.84;;;32.10;28.90
13581;BME280;6861;46.170;7.222;2023-05-27T10:51:07;95943.53;;;32.03;29.20
13581;BME280;6861;46.170;7.222;2023-05-27T10:53:37;95947.47;;;31.98;29.76
13581;BME280;6861;46.170;7.222;2023-05-27T10:56:06;95948.34;;;31.88;29.49
13581;BME280;6861;46.170;7.222;2023-05-27T10:58:36;95949.63;;;31.76;30.27
13581;BME280;6861;46.170;7.222;2023-05-27T11:01:09;95940.81;;;31.69;30.47
13581;BME280;6861;46.170;7.222;2023-05-27T11:03:42;95933.09;;;31.63;30.27
13581;BME280;6861;46.170;7.222;2023-05-27T11:06:13;95936.25;;;31.58;30.21
13581;BME280;6861;46.170;7.222;2023-05-27T11:08:44;95934.03;;;31.46;29.90
13581;BME280;6861;46.170;7.222;2023-05-27T11:11:13;95934.84;;;31.43;30.43
13581;BME280;6861;46.170;7.222;2023-05-27T11:13:42;95930.31;;;31.29;30.03
13581;BME280;6861;46.170;7.222;2023-05-27T11:16:14;95931.66;;;31.14;29.93
13581;BME280;6861;46.170;7.222;2023-05-27T11:18:44;95926.66;;;31.06;30.48
13581;BME280;6861;46.170;7.222;2023-05-27T11:21:14;95918.16;;;31.07;30.51
13581;BME280;6861;46.170;7.222;2023-05-27T11:23:46;95912.38;;;31.05;30.58
13581;BME280;6861;46.170;7.222;2023-05-27T11:26:17;95910.41;;;31.09;30.57
13581;BME280;6861;46.170;7.222;2023-05-27T11:28:48;95908.09;;;31.11;30.69
13581;BME280;6861;46.170;7.222;2023-05-27T11:31:17;95896.59;;;31.00;30.23
13581;BME280;6861;46.170;7.222;2023-05-27T11:33:49;95882.06;;;30.83;30.77
13581;BME280;6861;46.170;7.222;2023-05-27T11:36:18;95891.31;;;30.82;31.36
13581;BME280;6861;46.170;7.222;2023-05-27T11:38:53;95895.91;;;30.89;31.11
13581;BME280;6861;46.170;7.222;2023-05-27T11:41:23;95889.75;;;30.85;31.54
13581;BME280;6861;46.170;7.222;2023-05-27T11:43:54;95886.69;;;30.83;31.34
13581;BME280;6861;46.170;7.222;2023-05-27T11:46:34;95889.84;;;30.74;31.69
13581;BME280;6861;46.170;7.222;2023-05-27T11:49:03;95889.88;;;30.71;31.55
13581;BME280;6861;46.170;7.222;2023-05-27T11:51:33;95881.44;;;30.61;31.55
13581;BME280;6861;46.170;7.222;2023-05-27T11:54:04;95878.38;;;30.52;31.52
13581;BME280;6861;46.170;7.222;2023-05-27T11:56:33;95879.97;;;30.43;31.75
13581;BME280;6861;46.170;7.222;2023-05-27T11:59:02;95867.25;;;30.43;31.78
13581;BME280;6861;46.170;7.222;2023-05-27T12:01:30;95875.31;;;30.50;31.80
13581;BME280;6861;46.170;7.222;2023-05-27T12:03:58;95870.66;;;30.58;32.05
13581;BME280;6861;46.170;7.222;2023-05-27T12:06:27;95862.50;;;30.65;31.76
13581;BME280;6861;46.170;7.222;2023-05-27T12:08:55;95859.81;;;30.61;32.00
13581;BME280;6861;46.170;7.222;2023-05-27T12:11:25;95865.19;;;30.69;31.86
13581;BME280;6861;46.170;7.222;2023-05-27T12:13:53;95861.25;;;30.77;31.42
13581;BME280;6861;46.170;7.222;2023-05-27T12:16:22;95855.47;;;30.78;31.51
13581;BME280;6861;46.170;7.222;2023-05-27T12:18:50;95858.13;;;30.82;31.54
13581;BME280;6861;46.170;7.222;2023-05-27T12:21:18;95855.06;;;30.80;31.99
13581;BME280;6861;46.170;7.222;2023-05-27T12:23:47;95856.59;;;30.81;31.95
13581;BME280;6861;46.170;7.222;2023-05-27T12:26:17;95850.41;;;30.84;32.26
13581;BME280;6861;46.170;7.222;2023-05-27T12:28:48;95849.97;;;30.89;32.30
13581;BME280;6861;46.170;7.222;2023-05-27T12:31:17;95845.72;;;30.88;31.94
13581;BME280;6861;46.170;7.222;2023-05-27T12:33:45;95836.03;;;30.94;32.45
13581;BME280;6861;46.170;7.222;2023-05-27T12:36:14;95843.34;;;30.97;32.11
13581;BME280;6861;46.170;7.222;2023-05-27T12:38:42;95834.78;;;31.02;32.64
13581;BME280;6861;46.170;7.222;2023-05-27T12:41:10;95828.63;;;31.02;32.09
13581;BME280;6861;46.170;7.222;2023-05-27T12:43:39;95816.25;;;31.04;31.83
13581;BME280;6861;46.170;7.222;2023-05-27T12:46:08;95810.78;;;31.08;31.96
13581;BME280;6861;46.170;7.222;2023-05-27T12:48:37;95812.34;;;31.09;31.89
13581;BME280;6861;46.170;7.222;2023-05-27T12:51:05;95812.28;;;31.12;31.77
13581;BME280;6861;46.170;7.222;2023-05-27T12:53:33;95797.66;;;31.13;32.32
13581;BME280;6861;46.170;7.222;2023-05-27T12:56:02;95800.34;;;31.13;32.27
13581;BME280;6861;46.170;7.222;2023-05-27T12:58:30;95795.72;;;31.10;32.53
13581;BME280;6861;46.170;7.222;2023-05-27T13:00:58;95796.88;;;31.09;32.40
13581;BME280;6861;46.170;7.222;2023-05-27T13:03:28;95793.44;;;31.05;32.55
13581;BME280;6861;46.170;7.222;2023-05-27T13:05:56;95793.91;;;30.96;32.82
13581;BME280;6861;46.170;7.222;2023-05-27T13:08:25;95790.88;;;30.91;32.94
13581;BME280;6861;46.170;7.222;2023-05-27T13:10:53;95793.59;;;30.91;32.77
13581;BME280;6861;46.170;7.222;2023-05-27T13:13:22;95787.81;;;30.89;32.94
13581;BME280;6861;46.170;7.222;2023-05-27T13:15:50;95792.44;;;30.88;32.53
13581;BME280;6861;46.170;7.222;2023-05-27T13:18:19;95781.25;;;30.90;33.11
13581;BME280;6861;46.170;7.222;2023-05-27T13:20:49;95788.66;;;30.82;32.97